Time;durP1;ratioP1;P1;durP2;ratioP2;P2;SDS_P1;SDS_P2;PMS_P1;PMS_P2;Temp;Humidity;BMP_temperature;BMP_pressure;BME280_temperature;BME280_humidity;BME280_pressure;Samples;Min_cycle;Max_cycle;Signal;HPM_P1;HPM_P2
2023/04/11 00:01:50;;;;;;;14.73;9.15;;;;;;;9.67;72.39;100680.48;1786899;79;21049;-58
2023/04/11 00:04:19;;;;;;;13.70;9.25;;;;;;;9.66;72.10;100675.20;1786524;80;21049;-59
2023/04/11 00:06:49;;;;;;;14.28;9.43;;;;;;;9.64;72.07;100680.00;1786659;79;21065;-59
2023/04/11 00:09:19;;;;;;;15.50;8.88;;;;;;;9.62;72.17;100675.23;1786521;80;21061;-58
2023/04/11 00:11:48;;;;;;;16.05;9.95;;;;;;;9.58;72.26;100674.75;1786807;80;20974;-58
2023/04/11 00:14:17;;;;;;;15.90;9.73;;;;;;;9.54;72.31;100673.42;1786820;79;21036;-59
2023/04/11 00:16:48;;;;;;;16.30;9.58;;;;;;;9.51;72.47;100676.53;1786830;80;21023;-60
2023/04/11 00:19:22;;;;;;;14.05;9.70;;;;;;;9.48;72.32;100670.91;1786494;80;21045;-59
2023/04/11 00:21:49;;;;;;;16.62;10.43;;;;;;;9.43;71.88;100672.49;1786713;80;21014;-58
2023/04/11 00:24:18;;;;;;;15.60;9.95;;;;;;;9.38;72.27;100670.83;1786822;79;21469;-57
2023/04/11 00:26:47;;;;;;;15.45;9.85;;;;;;;9.36;72.34;100672.38;1786771;80;21429;-59
2023/04/11 00:29:18;;;;;;;15.55;10.20;;;;;;;9.35;72.20;100672.05;1786373;79;20986;-58
2023/04/11 00:31:51;;;;;;;17.52;10.10;;;;;;;9.36;72.04;100668.80;1786680;80;21422;-58
2023/04/11 00:34:21;;;;;;;14.70;9.28;;;;;;;9.36;71.91;100672.90;1786748;80;21042;-59
2023/04/11 00:36:50;;;;;;;15.25;9.80;;;;;;;9.34;72.00;100677.70;1787022;80;21069;-58
2023/04/11 00:39:21;;;;;;;17.07;10.00;;;;;;;9.31;71.98;100659.77;1786757;79;21469;-58
2023/04/11 00:41:50;;;;;;;17.90;10.48;;;;;;;9.29;71.97;100663.21;1786572;79;21030;-58
2023/04/11 00:44:21;;;;;;;17.65;11.05;;;;;;;9.27;72.04;100667.16;1786949;79;21006;-59
2023/04/11 00:46:50;;;;;;;17.77;10.43;;;;;;;9.26;72.08;100658.63;1786952;80;21006;-58
2023/04/11 00:49:19;;;;;;;17.85;10.65;;;;;;;9.26;71.91;100659.98;1786690;80;21053;-59
2023/04/11 00:51:48;;;;;;;15.95;9.75;;;;;;;9.27;71.61;100669.89;1786488;80;21495;-58
2023/04/11 00:54:18;;;;;;;16.32;10.55;;;;;;;9.26;71.49;100665.46;1786731;79;21021;-59
2023/04/11 00:56:49;;;;;;;18.67;10.53;;;;;;;9.26;71.33;100661.36;1786393;80;21077;-58
2023/04/11 00:59:19;;;;;;;17.40;10.63;;;;;;;9.26;71.01;100671.78;1786607;79;20994;-58
2023/04/11 01:01:48;;;;;;;16.97;10.38;;;;;;;9.25;71.15;100671.44;1786437;80;21041;-59
2023/04/11 01:04:21;;;;;;;17.30;10.53;;;;;;;9.23;71.25;100664.45;1786870;79;21077;-58
2023/04/11 01:06:55;;;;;;;16.23;10.55;;;;;;;9.18;71.29;100663.13;1785582;80;21073;-59
2023/04/11 01:09:26;;;;;;;16.35;9.98;;;;;;;9.17;71.19;100666.03;1786543;79;21064;-59
2023/04/11 01:11:56;;;;;;;17.02;10.28;;;;;;;9.15;71.39;100662.63;1786583;79;21038;-59
2023/04/11 01:14:26;;;;;;;18.12;10.40;;;;;;;9.12;71.45;100665.22;1786464;80;21057;-59
2023/04/11 01:16:55;;;;;;;15.53;10.75;;;;;;;9.12;71.52;100667.95;1786632;80;21053;-58
2023/04/11 01:19:29;;;;;;;18.95;10.43;;;;;;;9.10;71.32;100666.40;1786418;80;21026;-59
2023/04/11 01:21:57;;;;;;;19.75;10.85;;;;;;;9.07;71.29;100666.25;1786332;80;21061;-58
2023/04/11 01:24:26;;;;;;;17.55;10.75;;;;;;;9.06;71.08;100667.28;1786467;80;21002;-59
2023/04/11 01:26:58;;;;;;;19.73;10.85;;;;;;;9.03;71.02;100669.01;1786475;80;21034;-59
2023/04/11 01:29:27;;;;;;;19.90;10.65;;;;;;;9.01;71.25;100667.48;1786510;80;21018;-58
2023/04/11 01:31:57;;;;;;;18.30;10.70;;;;;;;8.98;71.18;100667.33;1786617;79;21112;-60
2023/04/11 01:34:27;;;;;;;16.10;10.50;;;;;;;8.95;71.10;100660.02;1787151;80;21037;-58
2023/04/11 01:36:56;;;;;;;17.00;10.23;;;;;;;8.92;71.23;100656.28;1786701;80;21069;-59
2023/04/11 01:39:25;;;;;;;17.95;11.40;;;;;;;8.90;70.97;100660.55;1786872;80;21006;-59
2023/04/11 01:41:55;;;;;;;17.52;10.95;;;;;;;8.88;70.89;100658.00;1787054;79;21045;-59
2023/04/11 01:44:25;;;;;;;18.98;10.70;;;;;;;8.88;71.08;100663.98;1759003;79;21061;-60
2023/04/11 01:46:56;;;;;;;17.90;11.15;;;;;;;8.87;71.19;100660.91;1786672;79;21030;-59
2023/04/11 01:49:25;;;;;;;17.37;10.65;;;;;;;8.84;71.16;100653.08;1787162;80;21010;-60
2023/04/11 01:52:14;;;;;;;19.27;10.05;;;;;;;8.81;71.11;100646.61;1787043;79;21061;-62
2023/04/11 01:54:44;;;;;;;16.27;10.30;;;;;;;8.79;71.15;100647.30;1786736;80;21037;-59
2023/04/11 01:57:14;;;;;;;15.93;10.25;;;;;;;8.77;71.15;100646.63;1784570;79;20999;-58
2023/04/11 01:59:45;;;;;;;18.85;9.88;;;;;;;8.74;70.95;100643.75;1778256;81;21026;-61
2023/04/11 02:02:15;;;;;;;16.17;9.93;;;;;;;8.73;70.77;100638.46;1777929;81;21018;-59
2023/04/11 02:04:45;;;;;;;14.68;9.10;;;;;;;8.72;70.40;100638.98;1777965;79;20987;-58
2023/04/11 02:07:15;;;;;;;21.65;10.70;;;;;;;8.71;70.31;100633.18;1777834;79;21014;-59
2023/04/11 02:09:45;;;;;;;17.02;10.20;;;;;;;8.71;70.33;100643.25;1778197;79;21050;-59
2023/04/11 02:12:15;;;;;;;17.05;10.50;;;;;;;8.69;70.32;100637.13;1778266;79;21005;-57
2023/04/11 02:14:45;;;;;;;17.60;10.58;;;;;;;8.67;70.27;100638.67;1777985;81;21015;-58
2023/04/11 02:17:17;;;;;;;19.67;10.15;;;;;;;8.65;70.30;100633.05;1778124;79;21030;-58
2023/04/11 02:19:46;;;;;;;17.12;9.75;;;;;;;8.60;70.23;100634.95;1777822;80;21076;-57
2023/04/11 02:22:16;;;;;;;17.67;10.88;;;;;;;8.53;70.38;100636.70;1777911;79;21042;-57
2023/04/11 02:24:50;;;;;;;17.50;10.45;;;;;;;8.49;70.76;100628.02;1747847;81;21505;-58
2023/04/11 02:27:19;;;;;;;17.00;10.55;;;;;;;8.48;71.02;100633.66;1778024;79;21030;-58
2023/04/11 02:29:49;;;;;;;16.12;9.93;;;;;;;8.47;71.00;100631.44;1777970;81;21057;-59
2023/04/11 02:32:18;;;;;;;19.92;9.98;;;;;;;8.44;70.75;100627.66;1778207;79;21018;-57
2023/04/11 02:34:46;;;;;;;15.90;9.88;;;;;;;8.41;70.62;100625.80;1777921;81;21030;-60
2023/04/11 02:37:17;;;;;;;16.00;10.05;;;;;;;8.39;70.33;100632.81;1777925;79;21042;-59
2023/04/11 02:39:47;;;;;;;17.23;10.18;;;;;;;8.37;70.22;100632.14;1777966;81;21015;-60
2023/04/11 02:42:20;;;;;;;17.37;11.00;;;;;;;8.35;70.36;100631.47;1778174;81;21039;-59
2023/04/11 02:44:55;;;;;;;14.73;9.78;;;;;;;8.32;70.45;100629.05;1777665;80;20975;-59
2023/04/11 02:47:25;;;;;;;15.83;9.93;;;;;;;8.31;70.57;100619.68;1749498;81;21014;-58
2023/04/11 02:49:58;;;;;;;17.05;11.00;;;;;;;8.31;70.66;100616.95;1777936;80;21011;-59
2023/04/11 02:52:32;;;;;;;21.80;11.50;;;;;;;8.28;70.85;100616.28;1777872;79;21026;-58
2023/04/11 02:55:01;;;;;;;15.65;9.73;;;;;;;8.27;70.91;100619.19;1777905;79;21457;-60
2023/04/11 02:57:32;;;;;;;19.98;10.08;;;;;;;8.26;70.58;100615.60;1780234;80;21038;-58
2023/04/11 03:00:01;;;;;;;19.67;10.40;;;;;;;8.27;70.25;100617.30;1758368;80;21442;-61
2023/04/11 03:02:34;;;;;;;21.77;10.45;;;;;;;8.27;69.99;100619.19;1785669;80;21501;-59
2023/04/11 03:05:08;;;;;;;15.75;9.73;;;;;;;8.28;69.86;100610.81;1786964;79;21472;-59
2023/04/11 03:07:39;;;;;;;18.23;10.30;;;;;;;8.27;69.52;100621.91;1786622;80;21037;-59
2023/04/11 03:10:12;;;;;;;20.23;10.10;;;;;;;8.25;69.25;100619.36;1786684;80;21030;-58
2023/04/11 03:12:41;;;;;;;17.37;9.48;;;;;;;8.25;69.03;100616.63;1786910;79;21509;-58
2023/04/11 03:15:14;;;;;;;15.88;9.88;;;;;;;8.23;68.77;100615.11;1786917;79;21461;-61
2023/04/11 03:17:43;;;;;;;19.80;9.95;;;;;;;8.21;68.72;100616.66;1786878;80;20993;-60
2023/04/11 03:20:18;;;;;;;19.07;10.85;;;;;;;8.22;68.45;100616.13;1787438;79;20989;-59
2023/04/11 03:22:46;;;;;;;19.20;10.03;;;;;;;8.22;68.38;100616.98;1789078;80;21006;-59
2023/04/11 03:25:18;;;;;;;17.07;9.48;;;;;;;8.21;68.69;100620.74;1788055;79;21045;-59
2023/04/11 03:27:48;;;;;;;19.40;9.98;;;;;;;8.20;68.40;100625.02;1786877;80;21022;-57
2023/04/11 03:30:21;;;;;;;16.42;9.73;;;;;;;8.19;68.57;100621.44;1722257;83;21078;-60
2023/04/11 03:32:51;;;;;;;16.52;9.68;;;;;;;8.19;68.43;100613.77;1722043;82;21474;-59
2023/04/11 03:35:22;;;;;;;16.55;9.68;;;;;;;8.15;68.27;100620.09;1721981;82;21026;-60
2023/04/11 03:37:52;;;;;;;16.02;9.33;;;;;;;8.15;68.38;100615.14;1722143;83;21059;-58
2023/04/11 03:40:21;;;;;;;16.20;9.40;;;;;;;8.13;68.08;100613.10;1722138;83;21031;-61
2023/04/11 03:42:55;;;;;;;14.20;9.68;;;;;;;8.09;67.76;100615.84;1722233;82;21732;-60
2023/04/11 03:45:26;;;;;;;14.85;9.20;;;;;;;8.06;67.98;100623.87;1698877;83;21034;-58
2023/04/11 03:47:56;;;;;;;16.75;9.55;;;;;;;8.06;67.93;100620.30;1739337;80;21058;-58
2023/04/11 03:50:27;;;;;;;16.42;9.85;;;;;;;8.07;67.77;100622.84;1786784;79;21017;-61
2023/04/11 03:52:58;;;;;;;19.60;12.68;;;;;;;8.08;67.93;100625.06;1786559;80;21033;-59
2023/04/11 03:55:29;;;;;;;19.62;12.50;;;;;;;8.07;67.94;100617.91;1786616;79;21100;-58
2023/04/11 03:57:59;;;;;;;21.20;12.60;;;;;;;8.05;67.47;100619.45;1781815;80;21500;-60
2023/04/11 04:00:28;;;;;;;17.25;11.83;;;;;;;8.01;67.64;100619.46;1770338;80;21054;-59
2023/04/11 04:03:01;;;;;;;15.30;10.43;;;;;;;8.01;67.70;100616.73;1770122;80;21007;-59
2023/04/11 04:05:31;;;;;;;15.88;10.23;;;;;;;8.02;67.22;100620.31;1769994;80;21042;-60
2023/04/11 04:08:02;;;;;;;16.57;10.38;;;;;;;8.08;67.40;100616.87;1770229;80;21473;-60
2023/04/11 04:10:45;;;;;;;16.37;9.98;;;;;;;8.15;67.44;100617.88;1770237;80;21050;-59
2023/04/11 04:13:15;;;;;;;17.45;9.90;;;;;;;8.21;67.17;100614.44;1770151;80;21039;-60
2023/04/11 04:15:53;;;;;;;17.48;9.20;;;;;;;8.24;67.07;100609.98;1769966;81;21081;-59
2023/04/11 04:18:24;;;;;;;17.98;10.08;;;;;;;8.25;66.53;100599.41;1770129;81;21007;-59
2023/04/11 04:20:55;;;;;;;17.25;9.33;;;;;;;8.28;66.50;100601.78;1770328;81;21488;-58
2023/04/11 04:23:26;;;;;;;17.98;9.33;;;;;;;8.31;66.05;100608.25;1716840;82;21059;-60
2023/04/11 04:26:06;;;;;;;22.05;9.88;;;;;;;8.33;66.03;100603.49;1708895;83;21584;-58
2023/04/11 04:28:39;;;;;;;16.42;9.50;;;;;;;8.35;65.48;100596.48;1717083;83;21114;-60
2023/04/11 04:31:09;;;;;;;18.82;9.95;;;;;;;8.37;65.13;100589.81;1716941;83;21035;-59
2023/04/11 04:33:41;;;;;;;19.70;9.65;;;;;;;8.40;65.18;100589.97;1716906;83;21026;-60
2023/04/11 04:36:16;;;;;;;17.62;9.70;;;;;;;8.42;65.26;100580.58;1717094;83;21015;-58
2023/04/11 04:38:47;;;;;;;19.07;10.25;;;;;;;8.46;65.07;100586.56;1716902;82;21109;-60
2023/04/11 04:41:20;;;;;;;18.62;10.15;;;;;;;8.47;64.50;100578.19;1716727;83;20999;-60
2023/04/11 04:43:53;;;;;;;18.52;9.48;;;;;;;8.50;64.61;100577.83;1716426;82;21132;-60
2023/04/11 04:46:28;;;;;;;14.35;8.88;;;;;;;8.55;63.88;100574.05;1716788;83;21003;-60
2023/04/11 04:48:57;;;;;;;15.78;8.90;;;;;;;8.66;63.67;100572.78;1763098;80;21607;-59
2023/04/11 04:51:29;;;;;;;13.70;8.75;;;;;;;8.77;62.97;100569.63;1770395;79;21006;-59
2023/04/11 04:54:01;;;;;;;15.65;8.38;;;;;;;8.92;62.95;100566.95;1770131;81;21054;-60
2023/04/11 04:56:30;;;;;;;13.93;8.88;;;;;;;9.08;62.15;100560.49;1770109;79;21018;-60
2023/04/11 04:59:00;;;;;;;15.32;8.95;;;;;;;9.24;60.99;100560.89;1780173;79;21021;-64
2023/04/11 05:01:31;;;;;;;19.70;9.55;;;;;;;9.34;60.93;100562.84;1786742;79;21014;-59
2023/04/11 05:04:01;;;;;;;20.57;9.55;;;;;;;9.40;60.70;100564.33;1786675;80;21021;-59
2023/04/11 05:06:39;;;;;;;17.12;9.33;;;;;;;9.44;60.61;100562.06;1780637;80;21104;-59
2023/04/11 05:09:10;;;;;;;15.20;9.40;;;;;;;9.47;60.50;100558.44;1786548;79;21054;-59
2023/04/11 05:11:40;;;;;;;14.98;8.93;;;;;;;9.48;59.77;100556.55;1786621;80;21022;-57
2023/04/11 05:14:10;;;;;;;20.55;9.95;;;;;;;9.47;59.88;100549.38;1758373;80;20993;-59
2023/04/11 05:16:42;;;;;;;17.02;9.80;;;;;;;9.45;60.05;100555.04;1786533;79;21022;-60
2023/04/11 05:19:11;;;;;;;16.93;9.65;;;;;;;9.46;60.03;100558.11;1786925;79;21009;-59
2023/04/11 05:21:42;;;;;;;16.23;9.43;;;;;;;9.44;60.04;100555.23;1786606;80;21434;-61
2023/04/11 05:24:15;;;;;;;20.00;9.63;;;;;;;9.43;60.02;100550.80;1786746;79;21066;-60
2023/04/11 05:26:46;;;;;;;14.58;9.48;;;;;;;9.44;60.03;100549.76;1786673;80;21026;-59
2023/04/11 05:29:17;;;;;;;19.10;10.48;;;;;;;9.44;60.14;100554.70;1786714;79;21006;-59
2023/04/11 05:31:48;;;;;;;15.93;9.68;;;;;;;9.45;59.53;100549.56;1786547;79;21403;-61
2023/04/11 05:34:17;;;;;;;18.40;9.43;;;;;;;9.47;59.27;100550.23;1757931;80;21535;-59
2023/04/11 05:36:50;;;;;;;18.82;9.25;;;;;;;9.51;59.87;100543.87;1786538;79;21469;-59
2023/04/11 05:39:21;;;;;;;17.25;9.95;;;;;;;9.54;59.60;100542.98;1786482;79;21085;-60
2023/04/11 05:41:51;;;;;;;15.93;9.55;;;;;;;9.58;58.96;100539.34;1786734;79;21080;-59
2023/04/11 05:44:23;;;;;;;16.00;9.15;;;;;;;9.63;59.06;100548.36;1786544;80;21470;-58
2023/04/11 05:46:53;;;;;;;13.68;8.60;;;;;;;9.66;58.88;100541.98;1786870;80;21014;-61
2023/04/11 05:49:24;;;;;;;15.80;9.80;;;;;;;9.69;58.38;100541.61;1786775;79;21445;-60
2023/04/11 05:51:53;;;;;;;12.80;9.10;;;;;;;9.75;58.61;100544.99;1786696;80;21053;-59
2023/04/11 05:54:36;;;;;;;19.17;9.43;;;;;;;9.80;58.81;100549.90;1786676;80;21491;-60
2023/04/11 05:57:06;;;;;;;14.80;8.58;;;;;;;9.84;58.35;100545.75;1786488;79;21006;-59
2023/04/11 05:59:36;;;;;;;16.37;9.10;;;;;;;9.88;58.26;100544.84;1786539;79;21468;-60
2023/04/11 06:02:06;;;;;;;13.88;8.68;;;;;;;9.92;58.32;100547.53;1786917;80;21027;-59
2023/04/11 06:04:35;;;;;;;12.75;8.78;;;;;;;9.98;58.15;100546.77;1786909;80;21045;-60
2023/04/11 06:07:06;;;;;;;14.95;9.05;;;;;;;10.01;58.30;100543.66;1786508;79;21708;-60
2023/04/11 06:09:36;;;;;;;19.80;9.53;;;;;;;10.06;58.14;100535.20;1786871;80;21017;-59
2023/04/11 06:12:06;;;;;;;19.07;9.18;;;;;;;10.10;57.77;100536.52;1787010;79;21041;-62
2023/04/11 06:14:35;;;;;;;15.50;8.08;;;;;;;10.15;57.83;100542.78;1786839;79;21006;-60
2023/04/11 06:17:05;;;;;;;18.17;9.35;;;;;;;10.20;57.31;100548.56;1786600;79;21022;-60
2023/04/11 06:19:36;;;;;;;12.73;8.53;;;;;;;10.25;57.80;100538.41;1786533;80;21050;-58
2023/04/11 06:22:06;;;;;;;18.37;8.93;;;;;;;10.31;57.82;100536.27;1786976;79;21002;-60
2023/04/11 06:24:39;;;;;;;15.75;8.83;;;;;;;10.35;57.57;100531.58;1786797;80;21010;-59
2023/04/11 06:27:09;;;;;;;13.75;8.78;;;;;;;10.42;56.46;100535.27;1722284;82;21094;-62
2023/04/11 06:29:42;;;;;;;15.00;8.50;;;;;;;10.48;56.78;100531.77;1722156;83;21507;-57
2023/04/11 06:32:11;;;;;;;17.15;8.73;;;;;;;10.53;56.68;100518.84;1722437;83;21034;-62
2023/04/11 06:34:44;;;;;;;18.20;8.48;;;;;;;10.60;56.36;100521.66;1722294;83;21088;-60
2023/04/11 06:37:14;;;;;;;15.98;6.95;;;;;;;10.67;56.53;100525.31;1722420;83;21027;-59
2023/04/11 06:39:42;;;;;;;13.05;8.40;;;;;;;10.73;55.78;100525.37;1722228;83;21055;-60
2023/04/11 06:42:12;;;;;;;15.75;7.58;;;;;;;10.80;55.51;100520.81;1722270;83;21098;-59
2023/04/11 06:44:45;;;;;;;12.40;6.90;;;;;;;10.87;55.65;100522.77;1738222;79;21010;-60
2023/04/11 06:47:15;;;;;;;14.43;7.25;;;;;;;10.94;55.72;100523.67;1786961;80;21077;-58
2023/04/11 06:49:44;;;;;;;14.00;6.20;;;;;;;11.02;55.30;100521.64;1786692;80;20982;-59
2023/04/11 06:52:15;;;;;;;10.40;6.87;;;;;;;11.11;55.07;100515.00;1786582;79;21038;-59
2023/04/11 06:54:44;;;;;;;12.28;6.92;;;;;;;11.21;55.80;100514.66;1786398;79;21065;-59
2023/04/11 06:57:13;;;;;;;12.10;5.50;;;;;;;11.29;56.12;100519.14;1758501;80;21041;-59
2023/04/11 06:59:44;;;;;;;8.58;5.15;;;;;;;11.38;54.34;100509.71;1716239;82;21050;-59
2023/04/11 07:02:13;;;;;;;9.35;5.08;;;;;;;11.48;53.76;100497.86;1712946;84;21035;-60
2023/04/11 07:04:44;;;;;;;11.03;5.10;;;;;;;11.61;52.82;100503.42;1713759;84;21015;-59
2023/04/11 07:07:15;;;;;;;13.32;5.12;;;;;;;11.81;52.06;100506.34;1712955;84;21105;-60
2023/04/11 07:09:46;;;;;;;7.42;4.33;;;;;;;12.15;51.31;100493.61;1712082;84;21071;-59
2023/04/11 07:12:15;;;;;;;7.45;4.40;;;;;;;12.46;50.61;100493.94;1711555;84;21055;-60
2023/04/11 07:14:46;;;;;;;15.38;5.30;;;;;;;12.73;49.80;100494.84;1711312;84;21062;-60
2023/04/11 07:17:16;;;;;;;9.78;4.40;;;;;;;12.91;49.83;100483.22;1727245;81;21430;-60
2023/04/11 07:19:45;;;;;;;10.60;4.30;;;;;;;13.04;48.74;100479.66;1778102;80;21042;-60
2023/04/11 07:22:15;;;;;;;7.12;4.50;;;;;;;13.08;49.37;100474.05;1777696;80;21074;-60
2023/04/11 07:24:45;;;;;;;8.85;4.78;;;;;;;13.11;48.80;100483.25;1777651;79;21570;-60
2023/04/11 07:27:16;;;;;;;9.70;4.22;;;;;;;13.12;47.82;100475.31;1777710;81;21026;-58
2023/04/11 07:29:46;;;;;;;7.92;4.50;;;;;;;13.16;47.36;100469.70;1777715;79;21022;-59
2023/04/11 07:32:15;;;;;;;8.50;4.30;;;;;;;13.17;47.33;100467.30;1777796;80;21023;-59
2023/04/11 07:34:44;;;;;;;8.95;4.60;;;;;;;13.20;47.96;100472.38;1778117;79;21018;-60
2023/04/11 07:37:13;;;;;;;8.45;4.87;;;;;;;13.25;47.90;100473.42;1777718;79;20982;-59
2023/04/11 07:39:43;;;;;;;11.38;4.72;;;;;;;13.38;47.10;100467.05;1777644;79;21006;-59
2023/04/11 07:42:13;;;;;;;7.40;4.25;;;;;;;13.53;47.21;100463.53;1777790;81;21519;-59
2023/04/11 07:44:42;;;;;;;7.37;4.45;;;;;;;13.85;47.03;100462.30;1777698;79;20995;-60
2023/04/11 07:47:12;;;;;;;8.38;4.30;;;;;;;14.20;46.44;100456.73;1778045;80;21058;-58
2023/04/11 07:49:41;;;;;;;9.15;4.28;;;;;;;14.53;46.36;100452.45;1778178;81;21034;-61
2023/04/11 07:52:13;;;;;;;8.93;4.87;;;;;;;14.82;45.39;100444.61;1777914;79;21407;-58
2023/04/11 07:54:43;;;;;;;8.70;4.37;;;;;;;15.11;44.81;100437.06;1750977;81;21463;-59
2023/04/11 07:57:19;;;;;;;6.00;4.00;;;;;;;15.40;44.59;100441.56;1746535;81;21106;-61
2023/04/11 07:59:55;;;;;;;49.75;6.58;;;;;;;15.68;42.79;100436.95;1738205;81;21502;-59
2023/04/11 08:02:24;;;;;;;10.03;4.67;;;;;;;15.91;42.58;100436.25;1729214;81;21114;-63
2023/04/11 08:04:53;;;;;;;9.05;5.17;;;;;;;16.09;41.42;100428.77;1736171;82;21553;-59
2023/04/11 08:07:24;;;;;;;9.53;4.28;;;;;;;16.25;40.89;100427.28;1746451;82;21070;-60
2023/04/11 08:09:54;;;;;;;6.40;4.28;;;;;;;16.39;39.87;100431.58;1746465;82;21080;-61
2023/04/11 08:12:24;;;;;;;7.17;4.72;;;;;;;16.53;39.87;100423.08;1746611;82;21067;-59
2023/04/11 08:14:54;;;;;;;12.13;5.20;;;;;;;16.70;39.89;100429.11;1716694;83;21042;-60
2023/04/11 08:17:27;;;;;;;10.32;4.95;;;;;;;16.80;38.60;100423.83;1716822;83;21074;-59
2023/04/11 08:19:57;;;;;;;8.05;4.20;;;;;;;16.90;39.24;100417.70;1717081;83;21122;-60
2023/04/11 08:22:26;;;;;;;13.60;4.75;;;;;;;16.97;38.68;100406.02;1716860;83;21059;-59
2023/04/11 08:24:56;;;;;;;7.75;4.40;;;;;;;16.88;38.68;100418.48;1716554;83;21044;-61
2023/04/11 08:27:25;;;;;;;8.70;4.80;;;;;;;16.72;38.17;100421.95;1716846;83;21039;-61
2023/04/11 08:29:57;;;;;;;10.23;5.58;;;;;;;16.45;38.56;100415.95;1721744;82;21046;-60
2023/04/11 08:32:27;;;;;;;8.28;4.85;;;;;;;16.17;39.25;100409.10;1713182;84;21143;-61
2023/04/11 08:34:56;;;;;;;6.85;4.40;;;;;;;16.00;39.96;100419.12;1746267;82;21038;-61
2023/04/11 08:37:27;;;;;;;10.40;4.50;;;;;;;15.88;40.89;100410.47;1713451;84;21035;-60
2023/04/11 08:39:56;;;;;;;10.30;4.97;;;;;;;15.80;40.68;100404.18;1746512;81;21443;-60
2023/04/11 08:42:28;;;;;;;7.70;4.75;;;;;;;15.70;40.58;100407.18;1713297;84;21074;-60
2023/04/11 08:45:03;;;;;;;9.78;5.17;;;;;;;15.58;41.41;100396.56;1746541;82;21086;-60
2023/04/11 08:47:33;;;;;;;9.40;4.80;;;;;;;15.53;41.27;100399.45;1712992;82;21046;-59
2023/04/11 08:50:04;;;;;;;7.05;4.78;;;;;;;15.45;40.88;100384.57;1746598;81;21490;-60
2023/04/11 08:52:33;;;;;;;8.93;5.47;;;;;;;15.40;41.28;100396.00;1713358;82;21107;-59
2023/04/11 08:55:03;;;;;;;9.18;4.53;;;;;;;15.44;41.07;100375.98;1745509;81;21087;-61
2023/04/11 08:57:32;;;;;;;9.25;4.95;;;;;;;15.47;40.57;100382.96;1741811;80;20975;-60
2023/04/11 09:00:21;;;;;;;11.18;6.12;;;;;;;15.46;40.64;100377.13;1747364;80;21478;-60
2023/04/11 09:02:59;;;;;;;10.23;4.37;;;;;;;15.50;40.59;100371.45;1749478;80;21014;-60
2023/04/11 09:05:37;;;;;;;6.45;3.87;;;;;;;15.55;41.50;100366.08;1779233;80;21538;-61
2023/04/11 09:08:12;;;;;;;9.73;4.40;;;;;;;15.61;41.27;100372.13;1786397;80;20995;-59
2023/04/11 09:10:46;;;;;;;10.30;4.37;;;;;;;15.57;41.55;100369.99;1786338;80;21082;-59
2023/04/11 09:13:21;;;;;;;6.03;3.60;;;;;;;15.43;40.85;100361.87;1760236;80;21003;-59
2023/04/11 09:16:07;;;;;;;10.38;4.22;;;;;;;15.33;41.33;100357.95;1764905;80;21073;-60
2023/04/11 09:18:38;;;;;;;7.85;4.05;;;;;;;15.23;42.16;100358.48;1746377;82;21605;-61
2023/04/11 09:21:12;;;;;;;8.73;4.33;;;;;;;15.16;42.30;100357.72;1759720;81;21018;-60
2023/04/11 09:23:43;;;;;;;8.78;4.30;;;;;;;15.09;42.25;100345.91;1746219;82;21361;-60
2023/04/11 09:26:14;;;;;;;10.98;4.50;;;;;;;15.07;42.65;100343.38;1760035;80;21042;-60
2023/04/11 09:28:52;;;;;;;9.15;4.40;;;;;;;15.06;42.95;100329.81;1745562;82;21501;-60
2023/04/11 09:31:17;;;;;;;9.55;3.90;;;;;;;15.09;43.63;100329.35;1744228;81;21103;-60
2023/04/11 09:33:53;;;;;;;6.00;3.50;;;;;;;15.18;43.90;100326.06;1724237;83;21044;-61
2023/04/11 09:36:23;;;;;;;10.45;3.90;;;;;;;15.28;43.37;100317.23;1724498;82;21115;-61
2023/04/11 09:38:52;;;;;;;8.35;4.12;;;;;;;15.37;43.82;100314.47;1724135;82;21084;-60
2023/04/11 09:41:33;;;;;;;9.18;4.15;;;;;;;15.47;43.97;100318.91;1724342;82;21016;-59
2023/04/11 09:44:02;;;;;;;6.87;3.52;;;;;;;15.57;43.67;100309.23;1724006;82;21068;-61
2023/04/11 09:46:32;;;;;;;7.37;3.92;;;;;;;15.62;43.99;100299.23;1724170;82;21052;-59
2023/04/11 09:49:01;;;;;;;8.40;3.70;;;;;;;15.68;44.14;100296.08;1724145;82;21057;-60
2023/04/11 09:51:32;;;;;;;6.83;4.03;;;;;;;15.71;43.74;100292.31;1723889;82;21036;-60
2023/04/11 09:54:04;;;;;;;9.03;4.20;;;;;;;15.71;44.23;100283.18;1674203;82;21028;-60
2023/04/11 09:56:34;;;;;;;5.78;3.40;;;;;;;15.76;44.26;100275.03;1724278;83;21685;-59
2023/04/11 09:59:05;;;;;;;8.13;3.80;;;;;;;15.82;44.32;100282.38;1723977;82;21069;-61
2023/04/11 10:01:34;;;;;;;5.42;3.37;;;;;;;15.87;44.29;100276.98;1754076;82;21058;-59
2023/04/11 10:04:04;;;;;;;7.00;3.45;;;;;;;15.83;44.12;100278.00;1759988;80;21015;-59
2023/04/11 10:06:43;;;;;;;4.55;3.40;;;;;;;15.82;44.64;100276.31;1786513;80;21147;-59
2023/04/11 10:09:12;;;;;;;6.22;3.25;;;;;;;15.86;44.34;100284.98;1786558;80;21007;-59
2023/04/11 10:11:43;;;;;;;7.33;3.40;;;;;;;15.87;44.50;100277.53;1786549;80;21070;-59
2023/04/11 10:14:40;;;;;;;6.55;3.80;;;;;;;15.82;44.25;100272.70;1786241;80;21530;-60
2023/04/11 10:17:18;;;;;;;9.78;3.30;;;;;;;15.77;44.52;100269.81;1786568;80;21031;-58
2023/04/11 10:19:58;;;;;;;11.35;3.50;;;;;;;15.70;44.81;100268.52;1786673;80;21011;-58
2023/04/11 10:22:58;;;;;;;6.70;3.33;;;;;;;15.65;45.29;100266.16;1787022;80;21011;-61
2023/04/11 10:25:29;;;;;;;6.05;3.37;;;;;;;15.63;45.28;100255.34;1786731;80;21066;-59
2023/04/11 10:28:00;;;;;;;6.22;3.17;;;;;;;15.62;45.17;100253.66;1786930;80;21047;-59
2023/04/11 10:30:45;;;;;;;10.45;4.47;;;;;;;15.63;45.34;100251.20;1722954;83;21014;-59
2023/04/11 10:33:16;;;;;;;6.83;3.77;;;;;;;15.60;45.09;100236.98;1723913;83;21035;-58
2023/04/11 10:36:02;;;;;;;6.17;3.92;;;;;;;15.55;45.69;100241.27;1722817;83;21107;-60
2023/04/11 10:38:44;;;;;;;7.97;3.60;;;;;;;15.57;45.68;100242.95;1722286;83;21102;-59
2023/04/11 10:41:25;;;;;;;7.08;3.90;;;;;;;15.58;45.32;100243.29;1722203;83;21066;-59
2023/04/11 10:44:17;;;;;;;7.47;4.50;;;;;;;15.57;45.39;100237.43;1722031;83;21620;-59
2023/04/11 10:46:52;;;;;;;6.87;3.92;;;;;;;15.54;45.27;100223.02;1722016;83;21007;-59
2023/04/11 10:49:37;;;;;;;7.15;4.62;;;;;;;15.52;45.76;100219.64;1771735;80;21082;-60
2023/04/11 10:52:22;;;;;;;6.97;3.80;;;;;;;15.55;45.38;100217.80;1786639;80;21427;-61
2023/04/11 10:54:52;;;;;;;8.38;4.20;;;;;;;15.55;45.93;100216.41;1786631;80;21066;-62
2023/04/11 10:57:23;;;;;;;9.33;4.65;;;;;;;15.55;46.43;100215.57;1778740;80;21038;-61
2023/04/11 10:59:57;;;;;;;7.22;4.10;;;;;;;15.57;45.92;100213.95;1752639;82;21073;-59
2023/04/11 11:02:30;;;;;;;6.90;3.52;;;;;;;15.57;46.02;100221.70;1747235;82;21062;-59
2023/04/11 11:04:59;;;;;;;8.13;3.37;;;;;;;15.58;46.01;100208.77;1768778;80;21066;-60
2023/04/11 11:07:29;;;;;;;6.47;3.65;;;;;;;15.57;45.87;100207.05;1786663;80;21047;-60
2023/04/11 11:10:03;;;;;;;5.47;2.90;;;;;;;15.59;45.85;100207.69;1779473;80;21444;-61
2023/04/11 11:12:34;;;;;;;7.30;3.20;;;;;;;15.64;44.17;100200.95;1748071;81;21078;-62
2023/04/11 11:15:14;;;;;;;8.20;3.25;;;;;;;15.65;44.12;100198.49;1750406;82;21015;-59
2023/04/11 11:17:43;;;;;;;5.83;3.47;;;;;;;15.69;44.23;100194.18;1750312;82;21091;-60
2023/04/11 11:20:20;;;;;;;5.70;2.85;;;;;;;15.72;44.62;100203.37;1751017;82;21086;-60
2023/04/11 11:23:02;;;;;;;7.30;3.37;;;;;;;15.73;44.54;100197.61;1748544;82;21032;-59
2023/04/11 11:25:32;;;;;;;7.33;3.50;;;;;;;15.74;44.92;100201.22;1704574;83;21092;-59
2023/04/11 11:28:06;;;;;;;5.65;3.72;;;;;;;15.75;44.44;100205.12;1705169;83;21014;-60
2023/04/11 11:30:36;;;;;;;7.55;3.75;;;;;;;15.74;44.64;100186.87;1704910;83;21033;-60
2023/04/11 11:33:18;;;;;;;9.23;3.55;;;;;;;15.75;45.22;100187.71;1705090;83;21006;-59
2023/04/11 11:35:59;;;;;;;7.15;3.65;;;;;;;15.77;44.41;100180.03;1704856;83;21018;-60
2023/04/11 11:38:29;;;;;;;5.35;3.52;;;;;;;15.77;44.79;100179.48;1705131;83;21054;-60
2023/04/11 11:40:59;;;;;;;5.65;3.37;;;;;;;15.79;45.24;100180.09;1705243;84;21014;-60
2023/04/11 11:43:29;;;;;;;7.45;3.77;;;;;;;15.80;44.82;100176.79;1704781;83;21082;-61